createdAt,value
2019-01-31T00:00:25.785Z,9.97
2019-01-31T00:03:21.680Z,9.83
2019-01-31T00:06:09.727Z,15.10
2019-01-31T00:09:23.040Z,17.30
2019-01-31T00:12:35.492Z,14.77
2019-01-31T00:15:48.928Z,15.93
2019-01-31T00:18:41.083Z,14.23
2019-01-31T00:21:43.740Z,13.90
2019-01-31T00:24:40.662Z,12.17
2019-01-31T00:27:54.599Z,11.83
2019-01-31T00:31:08.158Z,11.67
2019-01-31T00:34:22.519Z,12.60
2019-01-31T00:37:26.426Z,12.17
2019-01-31T00:40:30.804Z,11.23
2019-01-31T00:43:23.733Z,10.80
2019-01-31T00:46:24.344Z,10.27
2019-01-31T00:49:29.065Z,10.40
2019-01-31T00:52:38.413Z,9.43
2019-01-31T00:55:43.133Z,10.30
2019-01-31T00:58:50.586Z,10.93
2019-01-31T01:02:02.560Z,8.67
2019-01-31T01:05:00.126Z,9.00
2019-01-31T01:07:54.605Z,7.97
2019-01-31T01:11:16.767Z,7.80
2019-01-31T01:14:09.699Z,7.30
2019-01-31T01:16:54.090Z,15.83
2019-01-31T01:19:50.983Z,18.43
2019-01-31T01:22:36.520Z,19.07
2019-01-31T01:25:47.489Z,17.57
2019-01-31T01:28:47.952Z,12.60
2019-01-31T01:31:48.767Z,12.70
2019-01-31T01:35:01.428Z,12.43
2019-01-31T01:38:30.435Z,11.80
2019-01-31T01:41:39.907Z,10.77
2019-01-31T01:44:39.435Z,18.53
2019-01-31T01:47:25.606Z,16.67
2019-01-31T01:50:25.785Z,18.33
2019-01-31T01:53:36.790Z,17.10
2019-01-31T01:56:34.121Z,15.53
2019-01-31T01:59:43.334Z,14.23
2019-01-31T02:02:42.478Z,13.13
2019-01-31T02:05:56.637Z,11.93
2019-01-31T02:09:12.993Z,13.63
2019-01-31T02:12:24.597Z,11.57
2019-01-31T02:15:21.536Z,12.27
2019-01-31T02:18:13.278Z,11.97
2019-01-31T02:21:24.829Z,13.43
2019-01-31T02:24:18.012Z,13.73
2019-01-31T02:27:18.892Z,13.67
2019-01-31T02:30:19.096Z,12.13
2019-01-31T02:33:30.471Z,12.67
2019-01-31T02:36:37.697Z,17.47
2019-01-31T02:39:45.598Z,18.87
2019-01-31T02:42:49.576Z,15.47
2019-01-31T02:46:05.779Z,16.23
2019-01-31T02:48:57.858Z,16.13
2019-01-31T02:52:20.176Z,15.87
2019-01-31T02:55:30.251Z,14.10
2019-01-31T02:58:31.961Z,15.00
2019-01-31T03:01:51.311Z,12.40
2019-01-31T03:04:28.154Z,12.20
2019-01-31T03:07:47.276Z,13.47
2019-01-31T03:10:50.791Z,13.23
2019-01-31T03:13:56.468Z,13.37
2019-01-31T03:17:03.417Z,12.50
2019-01-31T03:20:20.032Z,12.77
2019-01-31T03:23:10.753Z,13.60
2019-01-31T03:26:36.353Z,13.80
2019-01-31T03:29:46.599Z,13.20
2019-01-31T03:32:56.931Z,13.60
2019-01-31T03:35:50.965Z,13.00
2019-01-31T03:39:00.591Z,14.63
2019-01-31T03:42:08.584Z,12.73
2019-01-31T03:45:06.429Z,16.07
2019-01-31T03:48:11.938Z,15.20
2019-01-31T03:51:05.656Z,15.20
2019-01-31T03:54:07.056Z,15.50
2019-01-31T03:57:17.330Z,15.87
2019-01-31T04:00:30.961Z,15.43
2019-01-31T04:03:20.000Z,15.13
2019-01-31T04:06:00.690Z,17.93
2019-01-31T04:08:30.530Z,29.73
2019-01-31T04:11:00.030Z,48.67
2019-01-31T04:13:29.537Z,43.30
2019-01-31T04:15:59.123Z,49.27
2019-01-31T04:18:28.558Z,34.67
2019-01-31T04:20:58.354Z,15.17
2019-01-31T04:23:28.058Z,12.30
2019-01-31T04:25:57.750Z,11.00
2019-01-31T04:28:27.381Z,12.53
2019-01-31T04:30:57.035Z,33.20
2019-01-31T04:33:26.870Z,28.03
2019-01-31T04:35:56.494Z,16.73
2019-01-31T04:38:26.127Z,27.23
2019-01-31T04:40:55.835Z,16.63
2019-01-31T04:43:25.270Z,163.03
2019-01-31T04:45:55.098Z,161.33
2019-01-31T04:48:24.947Z,18.07
2019-01-31T04:50:54.755Z,15.63
2019-01-31T04:53:24.462Z,14.33
2019-01-31T04:55:53.860Z,16.20
2019-01-31T04:58:23.476Z,15.93
2019-01-31T05:00:53.297Z,25.00
2019-01-31T05:03:23.587Z,22.97
2019-01-31T05:05:53.092Z,19.23
2019-01-31T05:08:22.908Z,14.57
2019-01-31T05:10:52.739Z,14.50
2019-01-31T05:13:22.219Z,13.40
2019-01-31T05:15:51.636Z,12.83
2019-01-31T05:18:21.078Z,22.03
2019-01-31T05:20:50.837Z,25.83
2019-01-31T05:23:20.646Z,23.63
2019-01-31T05:25:51.462Z,37.77
2019-01-31T05:28:21.199Z,75.17
2019-01-31T05:30:50.897Z,44.00
2019-01-31T05:33:20.363Z,35.90
2019-01-31T05:35:50.235Z,36.17
2019-01-31T05:38:19.846Z,31.60
2019-01-31T05:40:55.695Z,35.17
2019-01-31T05:43:20.474Z,22.70
2019-01-31T05:45:49.960Z,21.00
2019-01-31T05:48:19.685Z,17.23
2019-01-31T05:50:49.280Z,15.83
2019-01-31T05:53:19.023Z,14.50
2019-01-31T05:55:48.524Z,12.33
2019-01-31T05:58:17.952Z,12.90
2019-01-31T06:00:47.370Z,26.90
2019-01-31T06:03:16.923Z,26.20
2019-01-31T06:05:46.726Z,19.37
2019-01-31T06:08:16.175Z,13.93
2019-01-31T06:10:46.017Z,16.63
2019-01-31T06:13:15.763Z,15.47
2019-01-31T06:15:45.175Z,17.20
2019-01-31T06:18:14.657Z,15.43
2019-01-31T06:20:44.132Z,17.43
2019-01-31T06:23:13.871Z,23.13
2019-01-31T06:25:43.605Z,31.33
2019-01-31T06:28:13.354Z,25.33
2019-01-31T06:30:43.220Z,26.97
2019-01-31T06:33:13.046Z,16.93
2019-01-31T06:35:42.474Z,27.03
2019-01-31T06:38:12.293Z,26.97
2019-01-31T06:40:42.056Z,16.33
2019-01-31T06:43:12.182Z,18.43
2019-01-31T06:45:41.886Z,22.20
2019-01-31T06:48:11.553Z,22.47
2019-01-31T06:50:41.360Z,35.43
2019-01-31T06:53:11.075Z,26.67
2019-01-31T06:55:40.823Z,27.47
2019-01-31T06:58:10.656Z,20.80
2019-01-31T07:00:40.329Z,39.00
2019-01-31T07:03:09.974Z,48.60
2019-01-31T07:05:39.593Z,31.70
2019-01-31T07:08:09.452Z,31.70
2019-01-31T07:10:39.176Z,30.00
2019-01-31T07:13:08.894Z,22.83
2019-01-31T07:15:38.661Z,25.80
2019-01-31T07:18:08.494Z,26.10
2019-01-31T07:20:38.242Z,39.87
2019-01-31T07:23:07.926Z,31.57
2019-01-31T07:25:37.638Z,46.30
2019-01-31T07:28:07.453Z,45.40
2019-01-31T07:30:36.934Z,36.67
2019-01-31T07:33:06.392Z,29.67
2019-01-31T07:35:35.779Z,30.80
2019-01-31T07:38:05.644Z,32.00
2019-01-31T07:40:35.120Z,44.67
2019-01-31T07:43:04.771Z,42.70
2019-01-31T07:45:34.459Z,47.77
2019-01-31T07:48:04.037Z,49.40
2019-01-31T07:50:33.529Z,55.67
2019-01-31T07:53:03.177Z,56.07
2019-01-31T07:55:32.789Z,52.87
2019-01-31T07:58:02.620Z,65.90
2019-01-31T08:00:32.522Z,62.00
2019-01-31T08:03:02.233Z,63.00
2019-01-31T08:05:31.881Z,54.90
2019-01-31T08:08:01.660Z,60.00
2019-01-31T08:10:34.023Z,37.80
2019-01-31T08:13:04.125Z,28.67
2019-01-31T08:15:33.969Z,27.83
2019-01-31T08:18:03.993Z,67.33
2019-01-31T08:20:33.758Z,53.70
2019-01-31T08:23:03.672Z,67.47
2019-01-31T08:25:33.535Z,70.77
2019-01-31T08:28:03.435Z,73.13
2019-01-31T08:30:37.745Z,44.67
2019-01-31T08:33:06.975Z,47.50
2019-01-31T08:35:37.019Z,43.30
2019-01-31T08:38:06.859Z,44.90
2019-01-31T08:40:36.509Z,32.27
2019-01-31T08:43:06.681Z,27.57
2019-01-31T08:45:36.109Z,32.57
2019-01-31T08:48:06.021Z,68.43
2019-01-31T08:50:35.731Z,31.30
2019-01-31T08:53:05.735Z,28.50
2019-01-31T08:55:35.136Z,27.33
2019-01-31T08:58:04.788Z,32.10
2019-01-31T09:00:34.575Z,29.90
2019-01-31T09:03:04.570Z,35.03
2019-01-31T09:05:34.382Z,25.07
2019-01-31T09:08:04.412Z,20.33
2019-01-31T09:10:36.494Z,23.43
2019-01-31T09:13:08.464Z,26.43
2019-01-31T09:15:38.001Z,24.77
2019-01-31T09:18:07.911Z,36.07
2019-01-31T09:20:50.492Z,24.87
2019-01-31T09:23:31.629Z,24.10
2019-01-31T09:26:14.286Z,31.37
2019-01-31T09:29:23.883Z,30.93
2019-01-31T09:32:24.112Z,36.27
2019-01-31T09:35:31.890Z,57.83
2019-01-31T09:38:45.111Z,45.60
2019-01-31T09:41:57.157Z,33.97
2019-01-31T09:44:49.503Z,28.17
2019-01-31T09:47:55.510Z,36.53
2019-01-31T09:51:30.065Z,29.40
2019-01-31T09:54:13.399Z,26.47
2019-01-31T09:57:25.759Z,23.67
2019-01-31T10:00:35.833Z,21.73
2019-01-31T10:03:42.472Z,28.27
2019-01-31T10:06:51.523Z,24.83
2019-01-31T10:09:51.700Z,31.87
2019-01-31T10:13:06.678Z,30.93
2019-01-31T10:16:01.327Z,27.20
2019-01-31T10:19:17.606Z,36.23
2019-01-31T10:22:08.533Z,33.63
2019-01-31T10:25:27.972Z,35.60
2019-01-31T10:28:23.639Z,30.10
2019-01-31T10:31:42.151Z,35.47
2019-01-31T10:34:37.322Z,35.47
2019-01-31T10:37:20.930Z,33.63
2019-01-31T10:40:15.928Z,38.80
2019-01-31T10:43:26.464Z,44.90
2019-01-31T10:46:31.545Z,52.53
2019-01-31T10:49:39.538Z,41.73
2019-01-31T10:52:40.472Z,29.07
2019-01-31T10:55:52.554Z,37.40
2019-01-31T10:58:55.907Z,41.37
2019-01-31T11:02:11.157Z,55.03
2019-01-31T11:05:05.862Z,32.90
2019-01-31T11:08:12.117Z,33.10
2019-01-31T11:11:05.780Z,41.03
2019-01-31T11:14:14.935Z,41.10
2019-01-31T11:17:41.834Z,34.67
2019-01-31T11:21:03.684Z,36.90
2019-01-31T11:24:08.792Z,42.63
2019-01-31T11:27:23.152Z,45.90
2019-01-31T11:30:18.127Z,34.67
2019-01-31T11:33:22.613Z,36.30
2019-01-31T11:36:39.525Z,37.27
2019-01-31T11:39:38.873Z,42.70
2019-01-31T11:42:23.824Z,41.93
2019-01-31T11:45:43.412Z,42.00
2019-01-31T11:48:31.212Z,31.77
2019-01-31T11:51:43.735Z,31.80
2019-01-31T11:54:51.213Z,40.13
2019-01-31T11:58:06.622Z,40.87
2019-01-31T12:00:36.222Z,33.57
2019-01-31T12:03:06.386Z,33.67
2019-01-31T12:05:36.114Z,29.90
2019-01-31T12:08:06.316Z,33.47
2019-01-31T12:10:36.089Z,40.10
2019-01-31T12:13:08.180Z,42.70
2019-01-31T12:15:38.047Z,44.10
2019-01-31T12:18:08.401Z,34.03
2019-01-31T12:20:38.157Z,31.57
2019-01-31T12:23:07.944Z,48.77
2019-01-31T12:25:37.530Z,43.23
2019-01-31T12:28:07.515Z,43.90
2019-01-31T12:30:37.147Z,33.83
2019-01-31T12:33:06.935Z,34.40
2019-01-31T12:35:36.671Z,36.70
2019-01-31T12:38:06.497Z,36.53
2019-01-31T12:40:35.996Z,59.27
2019-01-31T12:43:05.899Z,41.70
2019-01-31T12:45:35.649Z,35.57
2019-01-31T12:48:05.281Z,33.47
2019-01-31T12:50:35.133Z,33.53
2019-01-31T12:53:04.663Z,41.67
2019-01-31T12:55:34.083Z,38.57
2019-01-31T12:58:03.866Z,37.67
2019-01-31T13:00:33.532Z,32.80
2019-01-31T13:03:03.282Z,33.63
2019-01-31T13:05:32.713Z,35.40
2019-01-31T13:08:02.482Z,35.37
2019-01-31T13:10:33.500Z,38.23
2019-01-31T13:13:03.223Z,36.53
2019-01-31T13:15:33.055Z,30.93
2019-01-31T13:18:03.472Z,33.07
2019-01-31T13:20:33.176Z,31.67
2019-01-31T13:23:03.109Z,34.87
2019-01-31T13:25:33.079Z,32.17
2019-01-31T13:28:02.957Z,34.07
2019-01-31T13:30:32.622Z,36.07
2019-01-31T13:33:02.208Z,30.77
2019-01-31T13:35:31.886Z,33.27
2019-01-31T13:38:01.393Z,44.03
2019-01-31T13:40:31.050Z,38.50
2019-01-31T13:43:00.483Z,38.50
2019-01-31T13:45:32.472Z,39.70
2019-01-31T13:48:05.261Z,38.17
2019-01-31T13:50:35.116Z,38.20
2019-01-31T13:53:06.688Z,37.57
2019-01-31T13:55:39.008Z,40.50
2019-01-31T13:58:10.198Z,42.70
2019-01-31T14:00:40.081Z,41.77
2019-01-31T14:03:09.508Z,41.07
2019-01-31T14:05:39.097Z,35.37
2019-01-31T14:08:09.009Z,38.33
2019-01-31T14:10:40.170Z,39.90
2019-01-31T14:13:11.521Z,48.83
2019-01-31T14:15:41.167Z,45.23
2019-01-31T14:18:10.975Z,65.33
2019-01-31T14:20:40.452Z,46.27
2019-01-31T14:23:10.041Z,52.40
2019-01-31T14:25:39.496Z,41.40
2019-01-31T14:28:09.148Z,47.07
2019-01-31T14:30:39.986Z,53.27
2019-01-31T14:33:19.022Z,46.83
2019-01-31T14:35:49.312Z,44.97
2019-01-31T14:38:19.041Z,45.73
2019-01-31T14:40:48.837Z,40.63
2019-01-31T14:43:18.765Z,38.60
2019-01-31T14:45:48.592Z,42.57
2019-01-31T14:48:18.903Z,37.77
2019-01-31T14:50:49.019Z,44.20
2019-01-31T14:53:18.973Z,40.40
2019-01-31T14:55:48.789Z,40.10
2019-01-31T14:58:20.007Z,50.60
2019-01-31T15:00:49.927Z,44.00
2019-01-31T15:03:19.855Z,53.83
2019-01-31T15:05:49.806Z,61.77
2019-01-31T15:08:19.598Z,45.03
2019-01-31T15:10:49.267Z,39.93
2019-01-31T15:13:21.908Z,38.37
2019-01-31T15:15:51.378Z,41.17
2019-01-31T15:18:21.221Z,38.37
2019-01-31T15:20:50.981Z,42.07
2019-01-31T15:23:20.496Z,37.03
2019-01-31T15:25:50.924Z,39.70
2019-01-31T15:28:23.026Z,37.43
2019-01-31T15:30:52.963Z,35.67
2019-01-31T15:33:24.730Z,36.40
2019-01-31T15:35:54.843Z,37.03
2019-01-31T15:38:24.588Z,46.00
2019-01-31T15:40:54.431Z,58.27
2019-01-31T15:43:25.320Z,45.40
2019-01-31T15:45:55.750Z,39.87
2019-01-31T15:48:25.865Z,37.50
2019-01-31T15:50:55.686Z,38.87
2019-01-31T15:53:25.139Z,36.40
2019-01-31T15:55:54.872Z,33.87
2019-01-31T15:58:24.412Z,31.50
2019-01-31T16:00:56.067Z,32.27
2019-01-31T16:03:26.861Z,32.13
2019-01-31T16:05:56.547Z,32.13
2019-01-31T16:08:26.467Z,29.27
2019-01-31T16:10:56.092Z,29.53
2019-01-31T16:13:25.905Z,28.77
2019-01-31T16:15:55.743Z,25.13
2019-01-31T16:18:25.365Z,22.30
2019-01-31T16:20:55.029Z,20.63
2019-01-31T16:23:24.843Z,30.73
2019-01-31T16:25:55.068Z,27.53
2019-01-31T16:28:24.834Z,23.13
2019-01-31T16:30:54.499Z,20.87
2019-01-31T16:33:24.192Z,18.83
2019-01-31T16:35:54.001Z,23.67
2019-01-31T16:38:24.145Z,20.57
2019-01-31T16:40:53.921Z,16.90
2019-01-31T16:43:25.189Z,17.00
2019-01-31T16:45:55.027Z,17.33
2019-01-31T16:48:24.705Z,16.83
2019-01-31T16:50:54.422Z,15.20
2019-01-31T16:53:24.235Z,16.27
2019-01-31T16:55:55.255Z,15.70
2019-01-31T16:58:25.281Z,14.03
2019-01-31T17:00:54.972Z,13.70
2019-01-31T17:03:24.907Z,15.60
2019-01-31T17:05:54.489Z,13.87
2019-01-31T17:08:24.019Z,13.17
2019-01-31T17:10:56.337Z,14.50
2019-01-31T17:13:28.474Z,14.17
2019-01-31T17:15:58.464Z,13.03
2019-01-31T17:18:28.297Z,13.43
2019-01-31T17:20:58.161Z,13.13
2019-01-31T17:23:27.794Z,13.20
2019-01-31T17:25:57.393Z,10.53
2019-01-31T17:28:27.231Z,9.90
2019-01-31T17:30:56.760Z,8.30
2019-01-31T17:33:26.203Z,7.60
2019-01-31T17:35:55.626Z,6.90
2019-01-31T17:38:25.177Z,6.90
2019-01-31T17:40:56.491Z,6.23
2019-01-31T17:43:26.066Z,7.67
2019-01-31T17:45:55.632Z,8.50
2019-01-31T17:48:25.618Z,7.50
2019-01-31T17:50:55.485Z,6.57
2019-01-31T17:53:25.595Z,13.03
2019-01-31T17:55:57.995Z,13.57
2019-01-31T17:58:27.512Z,34.30
2019-01-31T18:00:58.415Z,21.50
2019-01-31T18:03:28.382Z,12.80
2019-01-31T18:05:58.676Z,10.47
2019-01-31T18:08:28.377Z,11.53
2019-01-31T18:10:57.816Z,10.17
2019-01-31T18:13:27.756Z,6.53
2019-01-31T18:15:57.663Z,5.70
2019-01-31T18:18:27.430Z,4.30
2019-01-31T18:20:57.244Z,7.27
2019-01-31T18:23:26.761Z,2.97
2019-01-31T18:25:56.379Z,3.43
2019-01-31T18:28:25.950Z,2.90
2019-01-31T18:30:55.338Z,2.63
2019-01-31T18:33:27.490Z,4.80
2019-01-31T18:35:56.341Z,3.17
2019-01-31T18:38:25.825Z,2.80
2019-01-31T18:40:55.455Z,2.33
2019-01-31T18:43:25.059Z,4.03
2019-01-31T18:45:54.638Z,3.17
2019-01-31T18:48:24.747Z,6.60
2019-01-31T18:50:55.008Z,8.80
2019-01-31T18:53:24.702Z,14.67
2019-01-31T18:55:54.476Z,9.20
2019-01-31T18:58:25.341Z,7.30
2019-01-31T19:00:55.384Z,5.70
2019-01-31T19:03:25.579Z,3.30
2019-01-31T19:05:55.182Z,2.30
2019-01-31T19:08:25.033Z,2.30
2019-01-31T19:10:54.973Z,1.83
2019-01-31T19:13:24.697Z,1.73
2019-01-31T19:16:04.687Z,1.90
2019-01-31T19:18:27.216Z,2.30
2019-01-31T19:20:57.154Z,1.67
2019-01-31T19:23:26.953Z,1.30
2019-01-31T19:25:56.732Z,5.10
2019-01-31T19:28:26.498Z,3.33
2019-01-31T19:30:56.164Z,1.40
2019-01-31T19:33:25.657Z,1.87
2019-01-31T19:35:56.549Z,1.97
2019-01-31T19:38:26.044Z,1.43
2019-01-31T19:40:56.306Z,1.90
2019-01-31T19:43:25.812Z,2.40
2019-01-31T19:45:57.297Z,3.90
2019-01-31T19:48:27.114Z,11.63
2019-01-31T19:50:57.134Z,1.80
2019-01-31T19:53:27.692Z,7.43
2019-01-31T19:55:57.494Z,3.50
2019-01-31T19:58:29.688Z,1.73
2019-01-31T20:00:59.402Z,2.20
2019-01-31T20:03:28.947Z,1.50
2019-01-31T20:05:58.793Z,1.30
2019-01-31T20:08:29.834Z,2.60
2019-01-31T20:10:59.311Z,1.40
2019-01-31T20:13:29.014Z,4.97
2019-01-31T20:15:59.821Z,2.07
2019-01-31T20:18:29.674Z,1.00
2019-01-31T20:20:59.538Z,1.30
2019-01-31T20:23:28.943Z,1.40
2019-01-31T20:25:58.348Z,1.17
2019-01-31T20:28:28.244Z,0.97
2019-01-31T20:30:58.170Z,1.47
2019-01-31T20:33:28.100Z,0.90
2019-01-31T20:35:59.216Z,1.43
2019-01-31T20:38:28.963Z,10.67
2019-01-31T20:40:58.722Z,5.90
2019-01-31T20:43:29.079Z,9.20
2019-01-31T20:46:00.948Z,2.20
2019-01-31T20:48:30.476Z,1.20
2019-01-31T20:51:00.075Z,2.00
2019-01-31T20:53:29.835Z,1.50
2019-01-31T20:55:59.722Z,8.00
2019-01-31T20:58:29.562Z,2.00
2019-01-31T21:00:59.300Z,1.30
2019-01-31T21:03:29.050Z,6.20
2019-01-31T21:05:59.041Z,4.80
2019-01-31T21:08:28.533Z,1.53
2019-01-31T21:10:58.254Z,1.50
2019-01-31T21:13:28.163Z,1.30
2019-01-31T21:15:57.816Z,1.30
2019-01-31T21:18:29.822Z,1.30
2019-01-31T21:20:59.196Z,1.30
2019-01-31T21:23:28.843Z,1.80
2019-01-31T21:25:58.668Z,1.70
2019-01-31T21:28:28.566Z,1.60
2019-01-31T21:30:58.171Z,1.80
2019-01-31T21:33:29.017Z,1.90
2019-01-31T21:36:00.724Z,1.63
2019-01-31T21:38:30.273Z,1.80
2019-01-31T21:40:59.875Z,2.30
2019-01-31T21:43:29.429Z,3.00
2019-01-31T21:45:58.974Z,3.40
2019-01-31T21:48:30.383Z,4.90
2019-01-31T21:50:59.638Z,4.40
2019-01-31T21:53:29.283Z,3.07
2019-01-31T21:55:58.817Z,9.63
2019-01-31T21:58:28.318Z,11.43
2019-01-31T22:00:58.069Z,5.17
2019-01-31T22:03:27.676Z,3.07
2019-01-31T22:05:57.380Z,4.73
2019-01-31T22:08:27.038Z,3.90
2019-01-31T22:10:56.503Z,2.90
2019-01-31T22:13:26.141Z,3.00
2019-01-31T22:15:55.803Z,2.70
2019-01-31T22:18:25.536Z,2.57
2019-01-31T22:20:55.167Z,2.33
2019-01-31T22:23:24.551Z,2.20
2019-01-31T22:25:54.013Z,2.20
2019-01-31T22:28:23.739Z,2.13
2019-01-31T22:30:53.402Z,2.23
2019-01-31T22:33:25.183Z,2.17
2019-01-31T22:35:54.857Z,2.20
2019-01-31T22:38:24.414Z,2.30
2019-01-31T22:40:53.956Z,2.00
2019-01-31T22:43:23.556Z,2.30
2019-01-31T22:45:53.465Z,2.00
2019-01-31T22:48:23.052Z,1.97
2019-01-31T22:50:52.554Z,2.10
2019-01-31T22:53:22.107Z,2.57
2019-01-31T22:55:51.587Z,3.13
2019-01-31T22:58:20.982Z,1.70
2019-01-31T23:01:27.409Z,1.40
2019-01-31T23:03:57.318Z,1.87
2019-01-31T23:06:27.203Z,1.63
2019-01-31T23:08:56.578Z,1.40
2019-01-31T23:11:26.152Z,1.50
2019-01-31T23:13:55.628Z,1.57
2019-01-31T23:16:25.430Z,1.47
2019-01-31T23:18:55.362Z,1.20
2019-01-31T23:21:24.845Z,1.63
2019-01-31T23:23:54.417Z,1.63
2019-01-31T23:26:23.790Z,1.67
2019-01-31T23:28:53.583Z,1.80
2019-01-31T23:31:23.494Z,2.87
2019-01-31T23:33:52.925Z,3.77
2019-01-31T23:36:23.010Z,2.80
2019-01-31T23:38:52.802Z,3.10
2019-01-31T23:41:22.347Z,6.07
2019-01-31T23:43:51.848Z,5.07
2019-01-31T23:46:21.462Z,3.80
2019-01-31T23:48:51.145Z,9.93
2019-01-31T23:51:20.632Z,11.07
2019-01-31T23:53:50.122Z,6.40
2019-01-31T23:56:19.742Z,8.07
2019-01-31T23:58:49.197Z,10.97
